Time,TemperatureF,DewpointF,PressureIn,WindDirection,WindDirectionDegrees,WindSpeedMPH,WindSpeedGustMPH,Humidity,HourlyPrecipIn,Conditions,Clouds,dailyrainin,SoftwareType,DateUTC
2016-09-26 00:05:00,41.0,39.0,30.22,West,280,0.0,0.0,91,-99.99,,,-99.99,,2016-09-26 04:05:00,
2016-09-26 00:14:00,41.0,39.0,30.22,West,280,0.0,0.0,91,-99.99,,,-99.99,,2016-09-26 04:14:00,
2016-09-26 00:24:00,40.0,38.0,30.22,West,280,0.0,0.0,92,-99.99,,,-99.99,,2016-09-26 04:24:00,
2016-09-26 01:11:00,40.0,38.0,30.23,West,280,0.0,0.0,94,-99.99,,,-99.99,,2016-09-26 05:11:00,
2016-09-26 01:29:00,39.0,37.0,30.23,West,280,0.0,0.0,94,-99.99,,,-99.99,,2016-09-26 05:29:00,
2016-09-26 01:36:00,39.0,37.0,30.23,West,280,0.0,0.0,94,-99.99,,,-99.99,,2016-09-26 05:36:00,
2016-09-26 01:47:00,39.0,37.0,30.23,West,280,0.0,0.0,94,-99.99,,,-99.99,,2016-09-26 05:47:00,
2016-09-26 01:57:00,39.0,38.0,30.24,West,280,0.0,-999.0,95,-99.99,,,-99.99,,2016-09-26 05:57:00,
2016-09-26 02:06:00,38.0,37.0,30.24,West,280,0.0,0.0,95,-99.99,,,-99.99,,2016-09-26 06:06:00,
2016-09-26 02:14:00,38.0,37.0,30.24,West,280,0.0,0.0,95,-99.99,,,-99.99,,2016-09-26 06:14:00,
2016-09-26 02:25:00,38.0,37.0,30.24,West,280,0.0,0.0,95,-99.99,,,-99.99,,2016-09-26 06:25:00,
2016-09-26 02:47:00,38.0,37.0,30.23,West,280,0.0,0.0,95,-99.99,,,-99.99,,2016-09-26 06:47:00,
2016-09-26 02:55:00,37.0,36.0,30.23,West,280,0.0,0.0,96,-99.99,,,-99.99,,2016-09-26 06:55:00,
2016-09-26 03:07:00,37.0,36.0,30.23,West,280,0.0,0.0,96,-99.99,,,-99.99,,2016-09-26 07:07:00,
2016-09-26 03:16:00,37.0,36.0,30.23,West,280,0.0,0.0,96,-99.99,,,-99.99,,2016-09-26 07:16:00,
2016-09-26 03:29:00,37.0,36.0,30.23,West,280,0.0,0.0,96,-99.99,,,-99.99,,2016-09-26 07:29:00,
2016-09-26 03:37:00,37.0,36.0,30.23,West,280,0.0,0.0,96,-99.99,,,-99.99,,2016-09-26 07:37:00,
2016-09-26 03:45:00,36.0,35.0,30.22,West,280,0.0,0.0,96,-99.99,,,-99.99,,2016-09-26 07:45:00,
2016-09-26 03:56:00,36.0,35.0,30.22,West,279,0.0,0.0,96,-99.99,,,-99.99,,2016-09-26 07:56:00,
2016-09-26 04:04:00,36.0,35.0,30.22,West,280,0.0,0.0,96,-99.99,,,-99.99,,2016-09-26 08:04:00,
2016-09-26 04:14:00,36.0,35.0,30.22,West,280,0.0,0.0,96,-99.99,,,-99.99,,2016-09-26 08:14:00,
2016-09-26 04:24:00,36.0,35.0,30.22,West,280,0.0,0.0,96,-99.99,,,-99.99,,2016-09-26 08:24:00,
2016-09-26 04:34:00,36.0,35.0,30.22,West,280,0.0,0.0,96,-99.99,,,-99.99,,2016-09-26 08:34:00,
2016-09-26 04:54:00,35.0,34.0,30.22,West,280,0.0,-999.0,96,-99.99,,,-99.99,,2016-09-26 08:54:00,
2016-09-26 05:04:00,35.0,34.0,30.22,West,279,0.0,0.0,96,-99.99,,,-99.99,,2016-09-26 09:04:00,
2016-09-26 05:13:00,35.0,34.0,30.22,West,279,0.0,0.0,97,-99.99,,,-99.99,,2016-09-26 09:13:00,
2016-09-26 05:24:00,35.0,34.0,30.22,West,280,0.0,0.0,97,-99.99,,,-99.99,,2016-09-26 09:24:00,
2016-09-26 05:34:00,35.0,34.0,30.23,West,280,0.0,0.0,97,-99.99,,,-99.99,,2016-09-26 09:34:00,
2016-09-26 05:46:00,35.0,34.0,30.23,West,280,0.0,0.0,97,-99.99,,,-99.99,,2016-09-26 09:46:00,
2016-09-26 06:06:00,35.0,34.0,30.23,West,279,0.0,0.0,97,-99.99,,,-99.99,,2016-09-26 10:06:00,
2016-09-26 06:14:00,35.0,34.0,30.23,West,279,0.0,1.0,97,-99.99,,,-99.99,,2016-09-26 10:14:00,
2016-09-26 06:24:00,35.0,34.0,30.24,West,279,0.0,0.0,97,-99.99,,,-99.99,,2016-09-26 10:24:00,
2016-09-26 06:37:00,34.0,33.0,30.24,West,280,0.0,0.0,97,-99.99,,,-99.99,,2016-09-26 10:37:00,
2016-09-26 07:07:00,34.0,33.0,30.24,West,280,0.0,0.0,97,-99.99,,,-99.99,,2016-09-26 11:07:00,
2016-09-26 08:07:00,35.0,34.0,30.26,North,354,0.0,0.0,97,-99.99,,,-99.99,,2016-09-26 12:07:00,
2016-09-26 08:15:00,35.0,34.0,30.26,North,354,0.0,0.0,98,-99.99,,,-99.99,,2016-09-26 12:15:00,
2016-09-26 08:25:00,36.0,35.0,30.26,North,354,0.0,0.0,98,-99.99,,,-99.99,,2016-09-26 12:25:00,
2016-09-26 08:37:00,36.0,35.0,30.26,North,354,0.0,0.0,98,-99.99,,,-99.99,,2016-09-26 12:37:00,
2016-09-26 08:46:00,37.0,36.0,30.26,North,354,0.0,0.0,98,-99.99,,,-99.99,,2016-09-26 12:46:00,
2016-09-26 08:55:00,39.0,38.0,30.25,North,354,0.0,0.0,98,-99.99,,,-99.99,,2016-09-26 12:55:00,
2016-09-26 09:06:00,40.0,39.0,30.25,North,354,0.0,1.0,98,-99.99,,,-99.99,,2016-09-26 13:06:00,
2016-09-26 09:16:00,42.0,41.0,30.25,North,354,0.0,0.0,98,-99.99,,,-99.99,,2016-09-26 13:16:00,
2016-09-26 09:26:00,43.0,42.0,30.25,North,354,0.0,0.0,98,-99.99,,,-99.99,,2016-09-26 13:26:00,
2016-09-26 09:36:00,44.0,44.0,30.25,WNW,290,0.0,1.0,99,-99.99,,,-99.99,,2016-09-26 13:36:00,
2016-09-26 09:46:00,46.0,45.0,30.25,WNW,295,0.0,1.0,98,-99.99,,,-99.99,,2016-09-26 13:46:00,
2016-09-26 09:55:00,50.0,46.0,30.25,NW,312,0.0,-999.0,87,-99.99,,,-99.99,,2016-09-26 13:55:00,
2016-09-26 10:05:00,52.0,46.0,30.25,West,271,0.0,1.0,79,-99.99,,,-99.99,,2016-09-26 14:05:00,
2016-09-26 10:13:00,52.0,46.0,30.25,West,271,0.0,1.0,79,-99.99,,,-99.99,,2016-09-26 14:13:00,
2016-09-26 10:23:00,52.0,46.0,30.25,West,271,0.0,1.0,79,-99.99,,,-99.99,,2016-09-26 14:23:00,
2016-09-26 10:34:00,55.0,45.0,30.25,North,9,0.0,1.0,69,-99.99,,,-99.99,,2016-09-26 14:34:00,
2016-09-26 10:44:00,57.0,45.0,30.24,SSW,193,1.0,3.0,63,-99.99,,,-99.99,,2016-09-26 14:44:00,
2016-09-26 10:54:00,58.0,44.0,30.24,SE,146,1.0,2.0,59,-99.99,,,-99.99,,2016-09-26 14:54:00,
2016-09-26 11:04:00,59.0,43.0,30.23,SSW,203,2.0,4.0,56,-99.99,,,-99.99,,2016-09-26 15:04:00,
2016-09-26 11:13:00,59.0,46.0,30.23,SE,127,1.0,3.0,61,-99.99,,,-99.99,,2016-09-26 15:13:00,
2016-09-26 11:24:00,59.0,43.0,30.23,West,269,1.0,6.0,56,-99.99,,,-99.99,,2016-09-26 15:24:00,
2016-09-26 11:54:00,61.0,42.0,30.22,NW,318,1.0,4.0,50,-99.99,,,-99.99,,2016-09-26 15:54:00,
2016-09-26 12:07:00,61.0,42.0,30.22,WSW,245,1.0,6.0,49,-99.99,,,-99.99,,2016-09-26 16:07:00,
2016-09-26 12:27:00,62.0,41.0,30.20,WNW,297,0.0,-999.0,46,-99.99,,,-99.99,,2016-09-26 16:27:00,
2016-09-26 13:19:00,63.0,41.0,30.19,SE,136,3.0,-999.0,45,-99.99,,,-99.99,,2016-09-26 17:19:00,
2016-09-26 13:46:00,65.0,41.0,30.17,SSE,156,2.0,4.0,42,-99.99,,,-99.99,,2016-09-26 17:46:00,
2016-09-26 14:06:00,65.0,43.0,30.16,South,181,1.0,5.0,44,-99.99,,,-99.99,,2016-09-26 18:06:00,
2016-09-26 14:16:00,66.0,44.0,30.16,SSE,162,1.0,4.0,45,-99.99,,,-99.99,,2016-09-26 18:16:00,
2016-09-26 14:25:00,66.0,43.0,30.16,NW,314,1.0,5.0,43,-99.99,,,-99.99,,2016-09-26 18:25:00,
2016-09-26 14:47:00,66.0,43.0,30.16,NW,319,1.0,4.0,43,-99.99,,,-99.99,,2016-09-26 18:47:00,
2016-09-26 15:07:00,67.0,43.0,30.14,NW,318,2.0,4.0,42,-99.99,,,-99.99,,2016-09-26 19:07:00,
2016-09-26 15:15:00,67.0,44.0,30.14,SSE,163,2.0,5.0,43,-99.99,,,-99.99,,2016-09-26 19:15:00,
2016-09-26 15:25:00,67.0,44.0,30.14,SSE,155,2.0,7.0,43,-99.99,,,-99.99,,2016-09-26 19:25:00,
2016-09-26 15:39:00,68.0,43.0,30.13,ESE,110,1.0,6.0,40,-99.99,,,-99.99,,2016-09-26 19:39:00,
2016-09-26 15:46:00,68.0,43.0,30.13,ESE,110,1.0,6.0,40,-99.99,,,-99.99,,2016-09-26 19:46:00,
2016-09-26 16:04:00,68.0,44.0,30.12,WNW,288,1.0,2.0,42,-99.99,,,-99.99,,2016-09-26 20:04:00,
2016-09-26 16:14:00,68.0,43.0,30.11,SE,134,2.0,4.0,40,-99.99,,,-99.99,,2016-09-26 20:14:00,
2016-09-26 16:24:00,68.0,45.0,30.11,NNE,29,0.0,5.0,44,-99.99,,,-99.99,,2016-09-26 20:24:00,
2016-09-26 16:34:00,68.0,45.0,30.11,SSW,208,1.0,5.0,43,-99.99,,,-99.99,,2016-09-26 20:34:00,
2016-09-26 16:47:00,68.0,46.0,30.10,SSW,207,1.0,4.0,45,-99.99,,,-99.99,,2016-09-26 20:47:00,
2016-09-26 16:54:00,68.0,46.0,30.10,SSW,207,1.0,4.0,45,-99.99,,,-99.99,,2016-09-26 20:54:00,
2016-09-26 17:04:00,67.0,43.0,30.10,SW,214,0.0,4.0,42,-99.99,,,-99.99,,2016-09-26 21:04:00,
2016-09-26 17:14:00,66.0,43.0,30.09,SW,226,1.0,6.0,43,-99.99,,,-99.99,,2016-09-26 21:14:00,
2016-09-26 17:24:00,66.0,43.0,30.09,WSW,239,2.0,4.0,44,-99.99,,,-99.99,,2016-09-26 21:24:00,
2016-09-26 18:05:00,63.0,46.0,30.09,NE,50,0.0,1.0,53,-99.99,,,-99.99,,2016-09-26 22:05:00,